| State | Missouri | Latest | Unknown (1380 cfs) | |
| River | Marais des Cygnes River | Rating | Observed | Estimated |
| Updated | 2026-05-10 8:45 (34 minutes ago) | Flood - The river is flooding. Obstacles can be treacherous or deadly. The river should be avoided at this stage for casual trips and definitely for the inexperienced. Trips should be attempted only with protective gear and equipment.Flood | (none) | (none) |
| Discharge | 1380 cfs (median: 1320 cfs) | High - The river is high and potentially dangerous, especially for the young and / or inexperienced. Normal stream obstacles are sometimes difficult to navigate. Extended distances can be attempted, but canoe travel may not be advisable.High | (none) | (none) |
| Height | 6.75 feet | Good - Conditions are ideal for a canoe or kayak. Boats typically will drag on fewer than one-quarter of riffles, if at all, and portages are unnecessary or rare. Normal float lengths can be attempted without a problem.Good | (none) | (none) |
| Trend | Falling (falling over 24 hours) | Low - River is low but can still be floated. Some riffles are okay but most come with significant dragging and might need a portage. Float lengths should be reduced to accommodate low flow, dragging, and portages.Low | (none) | (none) |
| USGS | USGS Site ( Duck Duck Go Maps) | Poor - River is too low to float comfortably. Most or all riffles will drag or must be portaged and some obstacles (such as slick shelf rock) cause undue problems. Avoid the river at this stage for casual paddling trips.Poor | (none) | (none) |
A total of 2 rows are displayed.
| Miles | 2.5 |
| Trips | 1 |
| People | 2 |
| Dates | 2 |
| Years | 1 |
| Months | 1 |
| Rows | 2 |
| Sources | 1 |
BLG - Bluegill
CCF - Channel Catfish
CP - Chain Pickerel
FWD - Freshwater Drum
GSF - Green Sunfish
KSB - Kentucky Spotted Bass
LMB - Largemouth Bass
LSF - Longear Sunfish
RB - Rock Bass / Goggle Eye
RSF - Redear Sunfish
RT - Rainbow Trout
SMB - Smallmouth Bass
WB - White Bass
WF - Whitefish
WL - WalleyeThe classic River Trips application is still available for use. It is updated with the new system using a data retrofit. It is no longer maintained. The original River Trips application is no longer updated (as of 1 Dec 2016) but can be checked for errors or for the condition of the data before it was converted to the new system.
| Observation | Height | Discharge | Maximum Discharge | Minimum Discharge | Mean Discharge | P05 | P10 | P20 | P25 | P50 (Median) | P75 | P80 | P90 | P95 |
|---|---|---|---|---|---|---|---|---|---|---|---|---|---|---|
| 2026-05-10 08:45 | 6.75 | 1380 | 38600 (1961) | 2 (1981) | 4510 | 179 | 202 | 326 | 403 | 1320 | 5070 | 7320 | 14900 | 24300 |
| 2026-05-10 07:45 | 6.83 | 1430 | 38600 (1961) | 2 (1981) | 4510 | 179 | 202 | 326 | 403 | 1320 | 5070 | 7320 | 14900 | 24300 |
| 2026-05-10 06:45 | 6.85 | 1440 | 38600 (1961) | 2 (1981) | 4510 | 179 | 202 | 326 | 403 | 1320 | 5070 | 7320 | 14900 | 24300 |
| 2026-05-10 05:45 | 6.93 | 1500 | 38600 (1961) | 2 (1981) | 4510 | 179 | 202 | 326 | 403 | 1320 | 5070 | 7320 | 14900 | 24300 |
| 2026-05-10 04:45 | 7.00 | 1540 | 38600 (1961) | 2 (1981) | 4510 | 179 | 202 | 326 | 403 | 1320 | 5070 | 7320 | 14900 | 24300 |
| 2026-05-10 03:45 | 7.05 | 1570 | 38600 (1961) | 2 (1981) | 4510 | 179 | 202 | 326 | 403 | 1320 | 5070 | 7320 | 14900 | 24300 |
| 2026-05-10 02:45 | 7.14 | 1630 | 38600 (1961) | 2 (1981) | 4510 | 179 | 202 | 326 | 403 | 1320 | 5070 | 7320 | 14900 | 24300 |
| 2026-05-10 01:45 | 7.21 | 1670 | 38600 (1961) | 2 (1981) | 4510 | 179 | 202 | 326 | 403 | 1320 | 5070 | 7320 | 14900 | 24300 |
| 2026-05-10 00:45 | 7.26 | 1700 | 38600 (1961) | 2 (1981) | 4510 | 179 | 202 | 326 | 403 | 1320 | 5070 | 7320 | 14900 | 24300 |
| 2026-05-09 23:45 | 7.37 | 1760 | 38600 (1961) | 2 (1981) | 4510 | 179 | 202 | 326 | 403 | 1320 | 5070 | 7320 | 14900 | 24300 |
| 2026-05-09 22:45 | 7.45 | 1800 | 48000 (1961) | 1 (1981) | 4860 | 194 | 205 | 309 | 439 | 1580 | 5550 | 7570 | 14500 | 21000 |
| 2026-05-09 21:45 | 7.56 | 1870 | 48000 (1961) | 1 (1981) | 4860 | 194 | 205 | 309 | 439 | 1580 | 5550 | 7570 | 14500 | 21000 |
| 2026-05-09 20:45 | 7.65 | 1920 | 48000 (1961) | 1 (1981) | 4860 | 194 | 205 | 309 | 439 | 1580 | 5550 | 7570 | 14500 | 21000 |
| 2026-05-09 19:45 | 7.78 | 2000 | 48000 (1961) | 1 (1981) | 4860 | 194 | 205 | 309 | 439 | 1580 | 5550 | 7570 | 14500 | 21000 |
| 2026-05-09 18:45 | 7.87 | 2050 | 48000 (1961) | 1 (1981) | 4860 | 194 | 205 | 309 | 439 | 1580 | 5550 | 7570 | 14500 | 21000 |
| 2026-05-09 17:45 | 7.99 | 2120 | 48000 (1961) | 1 (1981) | 4860 | 194 | 205 | 309 | 439 | 1580 | 5550 | 7570 | 14500 | 21000 |
| 2026-05-09 16:45 | 8.10 | 2190 | 48000 (1961) | 1 (1981) | 4860 | 194 | 205 | 309 | 439 | 1580 | 5550 | 7570 | 14500 | 21000 |
| 2026-05-09 15:45 | 8.24 | 2270 | 48000 (1961) | 1 (1981) | 4860 | 194 | 205 | 309 | 439 | 1580 | 5550 | 7570 | 14500 | 21000 |
| 2026-05-09 14:45 | 8.35 | 2340 | 48000 (1961) | 1 (1981) | 4860 | 194 | 205 | 309 | 439 | 1580 | 5550 | 7570 | 14500 | 21000 |
| 2026-05-09 14:00 | 8.43 | 2390 | 48000 (1961) | 1 (1981) | 4860 | 194 | 205 | 309 | 439 | 1580 | 5550 | 7570 | 14500 | 21000 |
| 2026-05-09 13:45 | 8.46 | 2410 | 48000 (1961) | 1 (1981) | 4860 | 194 | 205 | 309 | 439 | 1580 | 5550 | 7570 | 14500 | 21000 |
| 2026-05-09 12:45 | 8.58 | 2490 | 48000 (1961) | 1 (1981) | 4860 | 194 | 205 | 309 | 439 | 1580 | 5550 | 7570 | 14500 | 21000 |
| 2026-05-09 11:45 | 8.67 | 2550 | 48000 (1961) | 1 (1981) | 4860 | 194 | 205 | 309 | 439 | 1580 | 5550 | 7570 | 14500 | 21000 |
| 2026-05-09 10:45 | 8.76 | 2600 | 48000 (1961) | 1 (1981) | 4860 | 194 | 205 | 309 | 439 | 1580 | 5550 | 7570 | 14500 | 21000 |
| 2026-05-09 09:45 | 8.87 | 2680 | 48000 (1961) | 1 (1981) | 4860 | 194 | 205 | 309 | 439 | 1580 | 5550 | 7570 | 14500 | 21000 |
| 2026-05-09 08:45 | 8.93 | 2720 | 48000 (1961) | 1 (1981) | 4860 | 194 | 205 | 309 | 439 | 1580 | 5550 | 7570 | 14500 | 21000 |
| 2026-05-09 07:45 | 9.01 | 2770 | 48000 (1961) | 1 (1981) | 4860 | 194 | 205 | 309 | 439 | 1580 | 5550 | 7570 | 14500 | 21000 |
| 2026-05-09 06:45 | 9.10 | 2830 | 48000 (1961) | 1 (1981) | 4860 | 194 | 205 | 309 | 439 | 1580 | 5550 | 7570 | 14500 | 21000 |
| 2026-05-09 05:45 | 9.15 | 2860 | 48000 (1961) | 1 (1981) | 4860 | 194 | 205 | 309 | 439 | 1580 | 5550 | 7570 | 14500 | 21000 |
| 2026-05-09 04:45 | 9.19 | 2890 | 48000 (1961) | 1 (1981) | 4860 | 194 | 205 | 309 | 439 | 1580 | 5550 | 7570 | 14500 | 21000 |
| 2026-05-09 03:45 | 9.22 | 2910 | 48000 (1961) | 1 (1981) | 4860 | 194 | 205 | 309 | 439 | 1580 | 5550 | 7570 | 14500 | 21000 |
| 2026-05-09 02:45 | 9.29 | 2960 | 48000 (1961) | 1 (1981) | 4860 | 194 | 205 | 309 | 439 | 1580 | 5550 | 7570 | 14500 | 21000 |
| 2026-05-09 01:45 | 9.31 | 2970 | 48000 (1961) | 1 (1981) | 4860 | 194 | 205 | 309 | 439 | 1580 | 5550 | 7570 | 14500 | 21000 |
| 2026-05-09 00:45 | 9.35 | 3000 | 48000 (1961) | 1 (1981) | 4860 | 194 | 205 | 309 | 439 | 1580 | 5550 | 7570 | 14500 | 21000 |
| 2026-05-08 23:45 | 9.36 | 3000 | 48000 (1961) | 1 (1981) | 4860 | 194 | 205 | 309 | 439 | 1580 | 5550 | 7570 | 14500 | 21000 |
| 2026-05-08 22:45 | 9.39 | 3030 | 42500 (1961) | 1 (1981) | 4740 | 182 | 213 | 363 | 487 | 1520 | 4490 | 8700 | 14700 | 21900 |
| 2026-05-08 21:45 | 9.42 | 3050 | 42500 (1961) | 1 (1981) | 4740 | 182 | 213 | 363 | 487 | 1520 | 4490 | 8700 | 14700 | 21900 |
| 2026-05-08 20:45 | 9.47 | 3080 | 42500 (1961) | 1 (1981) | 4740 | 182 | 213 | 363 | 487 | 1520 | 4490 | 8700 | 14700 | 21900 |
| 2026-05-08 19:45 | 9.49 | 3090 | 42500 (1961) | 1 (1981) | 4740 | 182 | 213 | 363 | 487 | 1520 | 4490 | 8700 | 14700 | 21900 |
| 2026-05-08 18:45 | 9.52 | 3120 | 42500 (1961) | 1 (1981) | 4740 | 182 | 213 | 363 | 487 | 1520 | 4490 | 8700 | 14700 | 21900 |
| 2026-05-08 17:45 | 9.56 | 3140 | 42500 (1961) | 1 (1981) | 4740 | 182 | 213 | 363 | 487 | 1520 | 4490 | 8700 | 14700 | 21900 |
| 2026-05-08 16:45 | 9.60 | 3170 | 42500 (1961) | 1 (1981) | 4740 | 182 | 213 | 363 | 487 | 1520 | 4490 | 8700 | 14700 | 21900 |
| 2026-05-08 15:45 | 9.64 | 3200 | 42500 (1961) | 1 (1981) | 4740 | 182 | 213 | 363 | 487 | 1520 | 4490 | 8700 | 14700 | 21900 |
| 2026-05-08 14:45 | 9.68 | 3230 | 42500 (1961) | 1 (1981) | 4740 | 182 | 213 | 363 | 487 | 1520 | 4490 | 8700 | 14700 | 21900 |
| 2026-05-08 14:00 | 9.73 | 3260 | 42500 (1961) | 1 (1981) | 4740 | 182 | 213 | 363 | 487 | 1520 | 4490 | 8700 | 14700 | 21900 |
| 2026-05-08 13:45 | 9.77 | 3290 | 42500 (1961) | 1 (1981) | 4740 | 182 | 213 | 363 | 487 | 1520 | 4490 | 8700 | 14700 | 21900 |
| 2026-05-08 12:45 | 9.81 | 3320 | 42500 (1961) | 1 (1981) | 4740 | 182 | 213 | 363 | 487 | 1520 | 4490 | 8700 | 14700 | 21900 |
| 2026-05-08 11:45 | 9.87 | 3360 | 42500 (1961) | 1 (1981) | 4740 | 182 | 213 | 363 | 487 | 1520 | 4490 | 8700 | 14700 | 21900 |
| 2026-05-08 10:45 | 9.94 | 3410 | 42500 (1961) | 1 (1981) | 4740 | 182 | 213 | 363 | 487 | 1520 | 4490 | 8700 | 14700 | 21900 |
| 2026-05-08 09:45 | 9.98 | 3440 | 42500 (1961) | 1 (1981) | 4740 | 182 | 213 | 363 | 487 | 1520 | 4490 | 8700 | 14700 | 21900 |
| 2026-05-08 08:45 | 10.05 | 3490 | 42500 (1961) | 1 (1981) | 4740 | 182 | 213 | 363 | 487 | 1520 | 4490 | 8700 | 14700 | 21900 |
| 2026-05-08 07:45 | 10.09 | 3520 | 42500 (1961) | 1 (1981) | 4740 | 182 | 213 | 363 | 487 | 1520 | 4490 | 8700 | 14700 | 21900 |
| 2026-05-08 06:45 | 10.18 | 3590 | 42500 (1961) | 1 (1981) | 4740 | 182 | 213 | 363 | 487 | 1520 | 4490 | 8700 | 14700 | 21900 |
| 2026-05-08 05:45 | 10.23 | 3620 | 42500 (1961) | 1 (1981) | 4740 | 182 | 213 | 363 | 487 | 1520 | 4490 | 8700 | 14700 | 21900 |
| 2026-05-08 04:45 | 10.30 | 3670 | 42500 (1961) | 1 (1981) | 4740 | 182 | 213 | 363 | 487 | 1520 | 4490 | 8700 | 14700 | 21900 |
| 2026-05-08 03:45 | 10.37 | 3730 | 42500 (1961) | 1 (1981) | 4740 | 182 | 213 | 363 | 487 | 1520 | 4490 | 8700 | 14700 | 21900 |
| 2026-05-08 02:45 | 10.44 | 3780 | 42500 (1961) | 1 (1981) | 4740 | 182 | 213 | 363 | 487 | 1520 | 4490 | 8700 | 14700 | 21900 |
| 2026-05-08 01:45 | 10.49 | 3810 | 42500 (1961) | 1 (1981) | 4740 | 182 | 213 | 363 | 487 | 1520 | 4490 | 8700 | 14700 | 21900 |
| 2026-05-08 00:45 | 10.56 | 3870 | 42500 (1961) | 1 (1981) | 4740 | 182 | 213 | 363 | 487 | 1520 | 4490 | 8700 | 14700 | 21900 |
| 2026-05-07 23:45 | 10.58 | 3880 | 42500 (1961) | 1 (1981) | 4740 | 182 | 213 | 363 | 487 | 1520 | 4490 | 8700 | 14700 | 21900 |
| 2026-05-07 22:45 | 10.67 | 3950 | 31600 (1961) | 1 (1981) | 4170 | 188 | 226 | 402 | 548 | 1230 | 4840 | 7490 | 13400 | 21600 |
| 2026-05-07 21:45 | 10.70 | 3970 | 31600 (1961) | 1 (1981) | 4170 | 188 | 226 | 402 | 548 | 1230 | 4840 | 7490 | 13400 | 21600 |
| 2026-05-07 20:45 | 10.74 | 4000 | 31600 (1961) | 1 (1981) | 4170 | 188 | 226 | 402 | 548 | 1230 | 4840 | 7490 | 13400 | 21600 |
| 2026-05-07 19:45 | 10.80 | 4050 | 31600 (1961) | 1 (1981) | 4170 | 188 | 226 | 402 | 548 | 1230 | 4840 | 7490 | 13400 | 21600 |
| 2026-05-07 18:45 | 10.88 | 4110 | 31600 (1961) | 1 (1981) | 4170 | 188 | 226 | 402 | 548 | 1230 | 4840 | 7490 | 13400 | 21600 |
| 2026-05-07 17:45 | 10.92 | 4140 | 31600 (1961) | 1 (1981) | 4170 | 188 | 226 | 402 | 548 | 1230 | 4840 | 7490 | 13400 | 21600 |
| 2026-05-07 16:45 | 10.93 | 4150 | 31600 (1961) | 1 (1981) | 4170 | 188 | 226 | 402 | 548 | 1230 | 4840 | 7490 | 13400 | 21600 |
| 2026-05-07 15:45 | 10.96 | 4170 | 31600 (1961) | 1 (1981) | 4170 | 188 | 226 | 402 | 548 | 1230 | 4840 | 7490 | 13400 | 21600 |
| 2026-05-07 14:45 | 11.02 | 4220 | 31600 (1961) | 1 (1981) | 4170 | 188 | 226 | 402 | 548 | 1230 | 4840 | 7490 | 13400 | 21600 |
| 2026-05-07 13:45 | 11.04 | 4230 | 31600 (1961) | 1 (1981) | 4170 | 188 | 226 | 402 | 548 | 1230 | 4840 | 7490 | 13400 | 21600 |
| 2026-05-07 12:45 | 11.11 | 4290 | 31600 (1961) | 1 (1981) | 4170 | 188 | 226 | 402 | 548 | 1230 | 4840 | 7490 | 13400 | 21600 |
| 2026-05-07 11:45 | 11.13 | 4300 | 31600 (1961) | 1 (1981) | 4170 | 188 | 226 | 402 | 548 | 1230 | 4840 | 7490 | 13400 | 21600 |
| 2026-05-07 10:45 | 11.17 | 4330 | 31600 (1961) | 1 (1981) | 4170 | 188 | 226 | 402 | 548 | 1230 | 4840 | 7490 | 13400 | 21600 |
| 2026-05-07 09:45 | 11.20 | 4360 | 31600 (1961) | 1 (1981) | 4170 | 188 | 226 | 402 | 548 | 1230 | 4840 | 7490 | 13400 | 21600 |
| 2026-05-07 08:45 | 11.24 | 4390 | 31600 (1961) | 1 (1981) | 4170 | 188 | 226 | 402 | 548 | 1230 | 4840 | 7490 | 13400 | 21600 |
| 2026-05-07 07:45 | 11.27 | 4410 | 31600 (1961) | 1 (1981) | 4170 | 188 | 226 | 402 | 548 | 1230 | 4840 | 7490 | 13400 | 21600 |
| 2026-05-07 06:45 | 11.29 | 4430 | 31600 (1961) | 1 (1981) | 4170 | 188 | 226 | 402 | 548 | 1230 | 4840 | 7490 | 13400 | 21600 |
| 2026-05-07 05:45 | 11.30 | 4440 | 31600 (1961) | 1 (1981) | 4170 | 188 | 226 | 402 | 548 | 1230 | 4840 | 7490 | 13400 | 21600 |
| 2026-05-07 04:45 | 11.33 | 4460 | 31600 (1961) | 1 (1981) | 4170 | 188 | 226 | 402 | 548 | 1230 | 4840 | 7490 | 13400 | 21600 |
| 2026-05-07 03:45 | 11.38 | 4500 | 31600 (1961) | 1 (1981) | 4170 | 188 | 226 | 402 | 548 | 1230 | 4840 | 7490 | 13400 | 21600 |
| 2026-05-07 02:45 | 11.39 | 4510 | 31600 (1961) | 1 (1981) | 4170 | 188 | 226 | 402 | 548 | 1230 | 4840 | 7490 | 13400 | 21600 |
| 2026-05-07 01:45 | 11.41 | 4520 | 31600 (1961) | 1 (1981) | 4170 | 188 | 226 | 402 | 548 | 1230 | 4840 | 7490 | 13400 | 21600 |
| 2026-05-07 00:45 | 11.41 | 4520 | 31600 (1961) | 1 (1981) | 4170 | 188 | 226 | 402 | 548 | 1230 | 4840 | 7490 | 13400 | 21600 |
| 2026-05-06 23:45 | 11.44 | 4550 | 31600 (1961) | 1 (1981) | 4170 | 188 | 226 | 402 | 548 | 1230 | 4840 | 7490 | 13400 | 21600 |
| 2026-05-06 22:45 | 11.45 | 4550 | 27800 (2019) | 1 (1981) | 4030 | 193 | 220 | 408 | 510 | 1230 | 4980 | 5980 | 12500 | 21000 |
| 2026-05-06 21:45 | 11.44 | 4550 | 27800 (2019) | 1 (1981) | 4030 | 193 | 220 | 408 | 510 | 1230 | 4980 | 5980 | 12500 | 21000 |
| 2026-05-06 20:45 | 11.43 | 4540 | 27800 (2019) | 1 (1981) | 4030 | 193 | 220 | 408 | 510 | 1230 | 4980 | 5980 | 12500 | 21000 |
| 2026-05-06 19:45 | 11.43 | 4540 | 27800 (2019) | 1 (1981) | 4030 | 193 | 220 | 408 | 510 | 1230 | 4980 | 5980 | 12500 | 21000 |
| 2026-05-06 18:45 | 11.41 | 4520 | 27800 (2019) | 1 (1981) | 4030 | 193 | 220 | 408 | 510 | 1230 | 4980 | 5980 | 12500 | 21000 |
| 2026-05-06 17:45 | 11.37 | 4490 | 27800 (2019) | 1 (1981) | 4030 | 193 | 220 | 408 | 510 | 1230 | 4980 | 5980 | 12500 | 21000 |
| 2026-05-06 16:45 | 11.34 | 4470 | 27800 (2019) | 1 (1981) | 4030 | 193 | 220 | 408 | 510 | 1230 | 4980 | 5980 | 12500 | 21000 |
| 2026-05-06 15:45 | 11.30 | 4440 | 27800 (2019) | 1 (1981) | 4030 | 193 | 220 | 408 | 510 | 1230 | 4980 | 5980 | 12500 | 21000 |
| 2026-05-06 14:45 | 11.28 | 4420 | 27800 (2019) | 1 (1981) | 4030 | 193 | 220 | 408 | 510 | 1230 | 4980 | 5980 | 12500 | 21000 |
| 2026-05-06 13:45 | 11.24 | 4390 | 27800 (2019) | 1 (1981) | 4030 | 193 | 220 | 408 | 510 | 1230 | 4980 | 5980 | 12500 | 21000 |
| 2026-05-06 12:45 | 11.20 | 4360 | 27800 (2019) | 1 (1981) | 4030 | 193 | 220 | 408 | 510 | 1230 | 4980 | 5980 | 12500 | 21000 |
| 2026-05-06 11:45 | 11.17 | 4330 | 27800 (2019) | 1 (1981) | 4030 | 193 | 220 | 408 | 510 | 1230 | 4980 | 5980 | 12500 | 21000 |
| 2026-05-06 10:45 | 11.14 | 4310 | 27800 (2019) | 1 (1981) | 4030 | 193 | 220 | 408 | 510 | 1230 | 4980 | 5980 | 12500 | 21000 |
| 2026-05-06 09:45 | 11.14 | 4310 | 27800 (2019) | 1 (1981) | 4030 | 193 | 220 | 408 | 510 | 1230 | 4980 | 5980 | 12500 | 21000 |
| 2026-05-06 08:45 | 11.12 | 4290 | 27800 (2019) | 1 (1981) | 4030 | 193 | 220 | 408 | 510 | 1230 | 4980 | 5980 | 12500 | 21000 |
| 2026-05-06 07:45 | 11.14 | 4310 | 27800 (2019) | 1 (1981) | 4030 | 193 | 220 | 408 | 510 | 1230 | 4980 | 5980 | 12500 | 21000 |
| 2026-05-06 06:45 | 11.15 | 4320 | 27800 (2019) | 1 (1981) | 4030 | 193 | 220 | 408 | 510 | 1230 | 4980 | 5980 | 12500 | 21000 |
| 2026-05-06 05:45 | 11.19 | 4350 | 27800 (2019) | 1 (1981) | 4030 | 193 | 220 | 408 | 510 | 1230 | 4980 | 5980 | 12500 | 21000 |
| 2026-05-06 04:45 | 11.23 | 4380 | 27800 (2019) | 1 (1981) | 4030 | 193 | 220 | 408 | 510 | 1230 | 4980 | 5980 | 12500 | 21000 |
| 2026-05-06 03:45 | 11.29 | 4430 | 27800 (2019) | 1 (1981) | 4030 | 193 | 220 | 408 | 510 | 1230 | 4980 | 5980 | 12500 | 21000 |
| 2026-05-06 02:45 | 11.34 | 4470 | 27800 (2019) | 1 (1981) | 4030 | 193 | 220 | 408 | 510 | 1230 | 4980 | 5980 | 12500 | 21000 |
| 2026-05-06 01:45 | 11.38 | 4500 | 27800 (2019) | 1 (1981) | 4030 | 193 | 220 | 408 | 510 | 1230 | 4980 | 5980 | 12500 | 21000 |
| 2026-05-06 00:45 | 11.45 | 4550 | 27800 (2019) | 1 (1981) | 4030 | 193 | 220 | 408 | 510 | 1230 | 4980 | 5980 | 12500 | 21000 |
| 2026-05-05 23:45 | 11.48 | 4580 | 27800 (2019) | 1 (1981) | 4030 | 193 | 220 | 408 | 510 | 1230 | 4980 | 5980 | 12500 | 21000 |
| 2026-05-05 22:45 | 11.51 | 4600 | 29300 (2019) | 1 (1981) | 4110 | 189 | 230 | 396 | 504 | 1550 | 4720 | 6400 | 13300 | 20100 |
| 2026-05-05 21:45 | 11.57 | 4650 | 29300 (2019) | 1 (1981) | 4110 | 189 | 230 | 396 | 504 | 1550 | 4720 | 6400 | 13300 | 20100 |
| 2026-05-05 20:45 | 11.60 | 4670 | 29300 (2019) | 1 (1981) | 4110 | 189 | 230 | 396 | 504 | 1550 | 4720 | 6400 | 13300 | 20100 |
| 2026-05-05 19:45 | 11.62 | 4690 | 29300 (2019) | 1 (1981) | 4110 | 189 | 230 | 396 | 504 | 1550 | 4720 | 6400 | 13300 | 20100 |
| 2026-05-05 18:45 | 11.68 | 4740 | 29300 (2019) | 1 (1981) | 4110 | 189 | 230 | 396 | 504 | 1550 | 4720 | 6400 | 13300 | 20100 |
| 2026-05-05 17:45 | 11.69 | 4750 | 29300 (2019) | 1 (1981) | 4110 | 189 | 230 | 396 | 504 | 1550 | 4720 | 6400 | 13300 | 20100 |
| 2026-05-05 16:45 | 11.71 | 4760 | 29300 (2019) | 1 (1981) | 4110 | 189 | 230 | 396 | 504 | 1550 | 4720 | 6400 | 13300 | 20100 |
| 2026-05-05 15:45 | 11.69 | 4750 | 29300 (2019) | 1 (1981) | 4110 | 189 | 230 | 396 | 504 | 1550 | 4720 | 6400 | 13300 | 20100 |
| 2026-05-05 14:45 | 11.71 | 4760 | 29300 (2019) | 1 (1981) | 4110 | 189 | 230 | 396 | 504 | 1550 | 4720 | 6400 | 13300 | 20100 |
| 2026-05-05 13:45 | 11.71 | 4760 | 29300 (2019) | 1 (1981) | 4110 | 189 | 230 | 396 | 504 | 1550 | 4720 | 6400 | 13300 | 20100 |
| 2026-05-05 12:45 | 11.72 | 4770 | 29300 (2019) | 1 (1981) | 4110 | 189 | 230 | 396 | 504 | 1550 | 4720 | 6400 | 13300 | 20100 |
| 2026-05-05 11:45 | 11.73 | 4780 | 29300 (2019) | 1 (1981) | 4110 | 189 | 230 | 396 | 504 | 1550 | 4720 | 6400 | 13300 | 20100 |
| 2026-05-05 10:45 | 11.74 | 4790 | 29300 (2019) | 1 (1981) | 4110 | 189 | 230 | 396 | 504 | 1550 | 4720 | 6400 | 13300 | 20100 |
| 2026-05-05 09:45 | 11.74 | 4790 | 29300 (2019) | 1 (1981) | 4110 | 189 | 230 | 396 | 504 | 1550 | 4720 | 6400 | 13300 | 20100 |
| 2026-05-05 08:45 | 11.73 | 4780 | 29300 (2019) | 1 (1981) | 4110 | 189 | 230 | 396 | 504 | 1550 | 4720 | 6400 | 13300 | 20100 |
| 2026-05-05 07:45 | 11.76 | 4800 | 29300 (2019) | 1 (1981) | 4110 | 189 | 230 | 396 | 504 | 1550 | 4720 | 6400 | 13300 | 20100 |
| 2026-05-05 06:45 | 11.74 | 4790 | 29300 (2019) | 1 (1981) | 4110 | 189 | 230 | 396 | 504 | 1550 | 4720 | 6400 | 13300 | 20100 |
| 2026-05-05 05:45 | 11.75 | 4800 | 29300 (2019) | 1 (1981) | 4110 | 189 | 230 | 396 | 504 | 1550 | 4720 | 6400 | 13300 | 20100 |
| 2026-05-05 04:45 | 11.78 | 4820 | 29300 (2019) | 1 (1981) | 4110 | 189 | 230 | 396 | 504 | 1550 | 4720 | 6400 | 13300 | 20100 |
| 2026-05-05 03:45 | 11.77 | 4810 | 29300 (2019) | 1 (1981) | 4110 | 189 | 230 | 396 | 504 | 1550 | 4720 | 6400 | 13300 | 20100 |
| 2026-05-05 02:45 | 11.77 | 4810 | 29300 (2019) | 1 (1981) | 4110 | 189 | 230 | 396 | 504 | 1550 | 4720 | 6400 | 13300 | 20100 |
| 2026-05-05 01:45 | 11.79 | 4830 | 29300 (2019) | 1 (1981) | 4110 | 189 | 230 | 396 | 504 | 1550 | 4720 | 6400 | 13300 | 20100 |
| 2026-05-05 00:45 | 11.79 | 4830 | 29300 (2019) | 1 (1981) | 4110 | 189 | 230 | 396 | 504 | 1550 | 4720 | 6400 | 13300 | 20100 |
| 2026-05-04 23:45 | 11.81 | 4840 | 29300 (2019) | 1 (1981) | 4110 | 189 | 230 | 396 | 504 | 1550 | 4720 | 6400 | 13300 | 20100 |
| 2026-05-04 22:45 | 11.81 | 4840 | 29000 (1994) | 1 (1981) | 4190 | 145 | 218 | 361 | 441 | 1590 | 3880 | 5740 | 11700 | 26400 |
| 2026-05-04 21:45 | 11.82 | 4850 | 29000 (1994) | 1 (1981) | 4190 | 145 | 218 | 361 | 441 | 1590 | 3880 | 5740 | 11700 | 26400 |
| 2026-05-04 20:45 | 11.85 | 4880 | 29000 (1994) | 1 (1981) | 4190 | 145 | 218 | 361 | 441 | 1590 | 3880 | 5740 | 11700 | 26400 |
| 2026-05-04 19:45 | 11.87 | 4890 | 29000 (1994) | 1 (1981) | 4190 | 145 | 218 | 361 | 441 | 1590 | 3880 | 5740 | 11700 | 26400 |
| 2026-05-04 18:45 | 11.87 | 4890 | 29000 (1994) | 1 (1981) | 4190 | 145 | 218 | 361 | 441 | 1590 | 3880 | 5740 | 11700 | 26400 |
| 2026-05-04 17:45 | 11.88 | 4900 | 29000 (1994) | 1 (1981) | 4190 | 145 | 218 | 361 | 441 | 1590 | 3880 | 5740 | 11700 | 26400 |
| 2026-05-04 16:45 | 11.89 | 4910 | 29000 (1994) | 1 (1981) | 4190 | 145 | 218 | 361 | 441 | 1590 | 3880 | 5740 | 11700 | 26400 |
| 2026-05-04 15:45 | 11.90 | 4920 | 29000 (1994) | 1 (1981) | 4190 | 145 | 218 | 361 | 441 | 1590 | 3880 | 5740 | 11700 | 26400 |
| 2026-05-04 14:45 | 11.92 | 4930 | 29000 (1994) | 1 (1981) | 4190 | 145 | 218 | 361 | 441 | 1590 | 3880 | 5740 | 11700 | 26400 |
| 2026-05-04 13:45 | 11.92 | 4930 | 29000 (1994) | 1 (1981) | 4190 | 145 | 218 | 361 | 441 | 1590 | 3880 | 5740 | 11700 | 26400 |
| 2026-05-04 12:45 | 11.91 | 4930 | 29000 (1994) | 1 (1981) | 4190 | 145 | 218 | 361 | 441 | 1590 | 3880 | 5740 | 11700 | 26400 |
| 2026-05-04 11:45 | 11.95 | 4960 | 29000 (1994) | 1 (1981) | 4190 | 145 | 218 | 361 | 441 | 1590 | 3880 | 5740 | 11700 | 26400 |
| 2026-05-04 10:45 | 11.96 | 4970 | 29000 (1994) | 1 (1981) | 4190 | 145 | 218 | 361 | 441 | 1590 | 3880 | 5740 | 11700 | 26400 |
| 2026-05-04 09:45 | 11.96 | 4970 | 29000 (1994) | 1 (1981) | 4190 | 145 | 218 | 361 | 441 | 1590 | 3880 | 5740 | 11700 | 26400 |
| 2026-05-04 08:45 | 11.99 | 4990 | 29000 (1994) | 1 (1981) | 4190 | 145 | 218 | 361 | 441 | 1590 | 3880 | 5740 | 11700 | 26400 |
| 2026-05-04 07:45 | 12.00 | 5000 | 29000 (1994) | 1 (1981) | 4190 | 145 | 218 | 361 | 441 | 1590 | 3880 | 5740 | 11700 | 26400 |
| 2026-05-04 06:45 | 12.01 | 5010 | 29000 (1994) | 1 (1981) | 4190 | 145 | 218 | 361 | 441 | 1590 | 3880 | 5740 | 11700 | 26400 |
| 2026-05-04 05:45 | 12.02 | 5020 | 29000 (1994) | 1 (1981) | 4190 | 145 | 218 | 361 | 441 | 1590 | 3880 | 5740 | 11700 | 26400 |
| 2026-05-04 04:45 | 12.03 | 5020 | 29000 (1994) | 1 (1981) | 4190 | 145 | 218 | 361 | 441 | 1590 | 3880 | 5740 | 11700 | 26400 |
| 2026-05-04 03:45 | 12.05 | 5040 | 29000 (1994) | 1 (1981) | 4190 | 145 | 218 | 361 | 441 | 1590 | 3880 | 5740 | 11700 | 26400 |
| 2026-05-04 02:45 | 12.08 | 5070 | 29000 (1994) | 1 (1981) | 4190 | 145 | 218 | 361 | 441 | 1590 | 3880 | 5740 | 11700 | 26400 |
| 2026-05-04 01:45 | 12.08 | 5070 | 29000 (1994) | 1 (1981) | 4190 | 145 | 218 | 361 | 441 | 1590 | 3880 | 5740 | 11700 | 26400 |
| 2026-05-04 00:45 | 12.10 | 5080 | 29000 (1994) | 1 (1981) | 4190 | 145 | 218 | 361 | 441 | 1590 | 3880 | 5740 | 11700 | 26400 |
| 2026-05-03 23:45 | 12.08 | 5070 | 29000 (1994) | 1 (1981) | 4190 | 145 | 218 | 361 | 441 | 1590 | 3880 | 5740 | 11700 | 26400 |
| 2026-05-03 22:45 | 12.13 | 5110 | 35200 (2009) | 2 (1981) | 4670 | 148 | 230 | 362 | 457 | 1580 | 5260 | 6120 | 13900 | 28000 |
| 2026-05-03 21:45 | 12.12 | 5100 | 35200 (2009) | 2 (1981) | 4670 | 148 | 230 | 362 | 457 | 1580 | 5260 | 6120 | 13900 | 28000 |
| 2026-05-03 20:45 | 12.15 | 5120 | 35200 (2009) | 2 (1981) | 4670 | 148 | 230 | 362 | 457 | 1580 | 5260 | 6120 | 13900 | 28000 |
| 2026-05-03 19:45 | 12.16 | 5130 | 35200 (2009) | 2 (1981) | 4670 | 148 | 230 | 362 | 457 | 1580 | 5260 | 6120 | 13900 | 28000 |
| 2026-05-03 18:45 | 12.17 | 5140 | 35200 (2009) | 2 (1981) | 4670 | 148 | 230 | 362 | 457 | 1580 | 5260 | 6120 | 13900 | 28000 |
| 2026-05-03 17:45 | 12.18 | 5150 | 35200 (2009) | 2 (1981) | 4670 | 148 | 230 | 362 | 457 | 1580 | 5260 | 6120 | 13900 | 28000 |
| 2026-05-03 16:45 | 12.19 | 5160 | 35200 (2009) | 2 (1981) | 4670 | 148 | 230 | 362 | 457 | 1580 | 5260 | 6120 | 13900 | 28000 |
| 2026-05-03 15:45 | 12.19 | 5160 | 35200 (2009) | 2 (1981) | 4670 | 148 | 230 | 362 | 457 | 1580 | 5260 | 6120 | 13900 | 28000 |
| 2026-05-03 14:45 | 12.21 | 5170 | 35200 (2009) | 2 (1981) | 4670 | 148 | 230 | 362 | 457 | 1580 | 5260 | 6120 | 13900 | 28000 |
| 2026-05-03 13:45 | 12.21 | 5170 | 35200 (2009) | 2 (1981) | 4670 | 148 | 230 | 362 | 457 | 1580 | 5260 | 6120 | 13900 | 28000 |
| 2026-05-03 12:45 | 12.22 | 5180 | 35200 (2009) | 2 (1981) | 4670 | 148 | 230 | 362 | 457 | 1580 | 5260 | 6120 | 13900 | 28000 |
| 2026-05-03 11:45 | 12.23 | 5190 | 35200 (2009) | 2 (1981) | 4670 | 148 | 230 | 362 | 457 | 1580 | 5260 | 6120 | 13900 | 28000 |
| 2026-05-03 10:45 | 12.24 | 5200 | 35200 (2009) | 2 (1981) | 4670 | 148 | 230 | 362 | 457 | 1580 | 5260 | 6120 | 13900 | 28000 |
| 2026-05-03 09:45 | 12.26 | 5220 | 35200 (2009) | 2 (1981) | 4670 | 148 | 230 | 362 | 457 | 1580 | 5260 | 6120 | 13900 | 28000 |
| 2026-05-03 08:45 | 12.25 | 5210 | 35200 (2009) | 2 (1981) | 4670 | 148 | 230 | 362 | 457 | 1580 | 5260 | 6120 | 13900 | 28000 |
| 2026-05-03 07:45 | 12.26 | 5220 | 35200 (2009) | 2 (1981) | 4670 | 148 | 230 | 362 | 457 | 1580 | 5260 | 6120 | 13900 | 28000 |
| 2026-05-03 06:45 | 12.28 | 5230 | 35200 (2009) | 2 (1981) | 4670 | 148 | 230 | 362 | 457 | 1580 | 5260 | 6120 | 13900 | 28000 |
| 2026-05-03 05:45 | 12.25 | 5210 | 35200 (2009) | 2 (1981) | 4670 | 148 | 230 | 362 | 457 | 1580 | 5260 | 6120 | 13900 | 28000 |
| 2026-05-03 04:45 | 12.26 | 5220 | 35200 (2009) | 2 (1981) | 4670 | 148 | 230 | 362 | 457 | 1580 | 5260 | 6120 | 13900 | 28000 |
| 2026-05-03 03:45 | 12.24 | 5200 | 35200 (2009) | 2 (1981) | 4670 | 148 | 230 | 362 | 457 | 1580 | 5260 | 6120 | 13900 | 28000 |
| 2026-05-03 02:45 | 12.25 | 5210 | 35200 (2009) | 2 (1981) | 4670 | 148 | 230 | 362 | 457 | 1580 | 5260 | 6120 | 13900 | 28000 |
| 2026-05-03 01:45 | 12.24 | 5200 | 35200 (2009) | 2 (1981) | 4670 | 148 | 230 | 362 | 457 | 1580 | 5260 | 6120 | 13900 | 28000 |
| 2026-05-03 00:45 | 12.22 | 5180 | 35200 (2009) | 2 (1981) | 4670 | 148 | 230 | 362 | 457 | 1580 | 5260 | 6120 | 13900 | 28000 |
| 2026-05-02 23:45 | 12.18 | 5150 | 35200 (2009) | 2 (1981) | 4670 | 148 | 230 | 362 | 457 | 1580 | 5260 | 6120 | 13900 | 28000 |
A total of 180 rows are displayed for years 1959 through 2025.